createdAt,value
2018-09-08T00:00:50.275Z,1.50
2018-09-08T00:01:50.225Z,1.50
2018-09-08T00:02:50.218Z,2.10
2018-09-08T00:03:50.204Z,1.40
2018-09-08T00:04:50.213Z,1.50
2018-09-08T00:05:50.254Z,1.60
2018-09-08T00:06:50.170Z,1.40
2018-09-08T00:07:50.159Z,1.20
2018-09-08T00:08:50.150Z,1.70
2018-09-08T00:09:50.154Z,1.40
2018-09-08T00:10:50.142Z,1.40
2018-09-08T00:11:50.121Z,1.50
2018-09-08T00:12:50.103Z,1.50
2018-09-08T00:13:50.111Z,1.70
2018-09-08T00:14:50.082Z,1.60
2018-09-08T00:15:50.071Z,1.50
2018-09-08T00:16:50.074Z,1.80
2018-09-08T00:17:50.052Z,1.70
2018-09-08T00:18:50.072Z,1.60
2018-09-08T00:19:50.024Z,1.50
2018-09-08T00:20:50.012Z,1.60
2018-09-08T00:21:50.007Z,1.60
2018-09-08T00:22:50.016Z,1.60
2018-09-08T00:23:49.975Z,1.60
2018-09-08T00:24:49.963Z,1.30
2018-09-08T00:25:49.956Z,1.70
2018-09-08T00:26:49.942Z,1.50
2018-09-08T00:27:49.951Z,1.70
2018-09-08T00:28:49.955Z,1.70
2018-09-08T00:29:49.954Z,1.80
2018-09-08T00:30:49.918Z,1.90
2018-09-08T00:31:49.909Z,1.80
2018-09-08T00:32:49.883Z,1.80
2018-09-08T00:33:49.880Z,1.60
2018-09-08T00:34:49.901Z,1.40
2018-09-08T00:35:49.844Z,1.20
2018-09-08T00:36:49.848Z,1.50
2018-09-08T00:37:49.834Z,1.50
2018-09-08T00:38:49.812Z,1.80
2018-09-08T00:39:49.792Z,1.70
2018-09-08T00:40:49.785Z,1.90
2018-09-08T00:41:49.832Z,1.50
2018-09-08T00:42:49.780Z,1.60
2018-09-08T00:43:49.754Z,1.80
2018-09-08T00:44:49.738Z,1.80
2018-09-08T00:45:49.788Z,1.90
2018-09-08T00:46:49.721Z,1.50
2018-09-08T00:47:49.707Z,1.60
2018-09-08T00:48:49.717Z,1.80
2018-09-08T00:49:49.708Z,1.40
2018-09-08T00:50:49.670Z,1.70
2018-09-08T00:51:49.662Z,1.60
2018-09-08T00:52:49.652Z,1.70
2018-09-08T00:53:49.653Z,1.80
2018-09-08T00:54:49.624Z,1.70
2018-09-08T00:55:49.664Z,1.50
2018-09-08T00:56:49.603Z,1.60
2018-09-08T00:57:49.594Z,1.70
2018-09-08T00:58:49.625Z,1.70
2018-09-08T00:59:49.590Z,1.50
2018-09-08T01:00:49.649Z,1.50
2018-09-08T01:01:49.585Z,1.90
2018-09-08T01:02:49.584Z,1.60
2018-09-08T01:03:49.589Z,1.50
2018-09-08T01:04:49.551Z,1.70
2018-09-08T01:05:49.519Z,1.50
2018-09-08T01:06:49.486Z,1.90
2018-09-08T01:07:49.570Z,2.20
2018-09-08T01:08:49.495Z,1.70
2018-09-08T01:09:49.458Z,1.70
2018-09-08T01:10:49.449Z,1.60
2018-09-08T01:11:49.516Z,1.90
2018-09-08T01:12:49.423Z,1.90
2018-09-08T01:13:49.414Z,1.40
2018-09-08T01:14:49.398Z,1.70
2018-09-08T01:15:49.390Z,1.50
2018-09-08T01:16:49.389Z,1.70
2018-09-08T01:17:49.386Z,1.60
2018-09-08T01:18:49.353Z,1.70
2018-09-08T01:19:49.342Z,1.70
2018-09-08T01:20:49.330Z,1.60
2018-09-08T01:21:49.319Z,1.60
2018-09-08T01:22:49.344Z,1.90
2018-09-08T01:23:49.315Z,1.60
2018-09-08T01:24:49.288Z,1.80
2018-09-08T01:25:49.281Z,1.60
2018-09-08T01:26:49.264Z,1.80
2018-09-08T01:27:49.250Z,1.50
2018-09-08T01:28:49.241Z,1.50
2018-09-08T01:29:49.262Z,2.00
2018-09-08T01:30:49.238Z,1.60
2018-09-08T01:31:49.210Z,1.80
2018-09-08T01:32:49.195Z,2.20
2018-09-08T01:33:49.185Z,2.30
2018-09-08T01:34:49.176Z,1.80
2018-09-08T01:35:49.183Z,2.00
2018-09-08T01:36:49.148Z,2.10
2018-09-08T01:37:49.208Z,2.20
2018-09-08T01:38:49.128Z,1.80
2018-09-08T01:39:49.113Z,1.80
2018-09-08T01:40:49.130Z,2.10
2018-09-08T01:41:49.115Z,1.80
2018-09-08T01:42:49.095Z,1.80
2018-09-08T01:43:49.118Z,1.80
2018-09-08T01:44:49.066Z,2.00
2018-09-08T01:45:49.048Z,2.00
2018-09-08T01:46:49.072Z,1.70
2018-09-08T01:47:49.041Z,1.80
2018-09-08T01:48:49.014Z,2.10
2018-09-08T01:49:49.011Z,1.90
2018-09-08T01:50:48.996Z,1.80
2018-09-08T01:51:48.987Z,2.00
2018-09-08T01:52:49.051Z,2.10
2018-09-08T01:53:48.958Z,2.10
2018-09-08T01:54:48.954Z,1.90
2018-09-08T01:55:48.945Z,2.00
2018-09-08T01:56:48.924Z,2.00
2018-09-08T01:57:48.924Z,2.20
2018-09-08T01:58:48.951Z,2.10
2018-09-08T01:59:48.892Z,1.80
2018-09-08T02:00:48.877Z,2.20
2018-09-08T02:01:48.875Z,1.80
2018-09-08T02:02:48.858Z,1.90
2018-09-08T02:03:48.845Z,2.10
2018-09-08T02:04:48.865Z,2.00
2018-09-08T02:05:48.871Z,2.00
2018-09-08T02:06:48.845Z,1.90
2018-09-08T02:07:48.800Z,2.00
2018-09-08T02:08:48.790Z,1.90
2018-09-08T02:09:48.782Z,1.90
2018-09-08T02:10:48.792Z,2.40
2018-09-08T02:11:48.754Z,2.00
2018-09-08T02:12:48.742Z,2.20
2018-09-08T02:13:48.731Z,2.00
2018-09-08T02:14:48.717Z,2.20
2018-09-08T02:15:48.755Z,2.30
2018-09-08T02:16:48.713Z,1.90
2018-09-08T02:17:48.685Z,1.90
2018-09-08T02:18:48.707Z,2.10
2018-09-08T02:19:48.716Z,2.20
2018-09-08T02:20:48.654Z,2.10
2018-09-08T02:21:48.649Z,2.40
2018-09-08T02:22:48.662Z,2.10
2018-09-08T02:23:48.613Z,1.90
2018-09-08T02:24:48.613Z,2.30
2018-09-08T02:25:48.607Z,2.10
2018-09-08T02:26:48.589Z,2.60
2018-09-08T02:27:48.592Z,2.10
2018-09-08T02:28:48.563Z,2.60
2018-09-08T02:29:48.584Z,2.60
2018-09-08T02:30:48.548Z,2.00
2018-09-08T02:31:48.532Z,2.00
2018-09-08T02:32:48.521Z,2.20
2018-09-08T02:33:48.607Z,2.20
2018-09-08T02:34:48.495Z,2.30
2018-09-08T02:35:48.501Z,2.40
2018-09-08T02:36:48.471Z,2.30
2018-09-08T02:37:48.458Z,2.40
2018-09-08T02:38:48.445Z,2.30
2018-09-08T02:39:48.497Z,2.30
2018-09-08T02:40:48.430Z,2.30
2018-09-08T02:41:48.413Z,2.20
2018-09-08T02:42:48.410Z,2.40
2018-09-08T02:43:48.401Z,2.40
2018-09-08T02:44:48.385Z,2.30
2018-09-08T02:45:48.391Z,2.60
2018-09-08T02:46:48.401Z,2.60
2018-09-08T02:47:48.351Z,2.50
2018-09-08T02:48:48.339Z,2.60
2018-09-08T02:49:48.324Z,2.70
2018-09-08T02:50:48.310Z,2.60
2018-09-08T02:51:48.317Z,2.30
2018-09-08T02:52:48.334Z,2.50
2018-09-08T02:53:48.281Z,2.40
2018-09-08T02:54:48.328Z,2.30
2018-09-08T02:55:48.272Z,2.60
2018-09-08T02:56:48.304Z,2.40
2018-09-08T02:57:48.232Z,2.40
2018-09-08T02:58:48.225Z,2.60
2018-09-08T02:59:48.210Z,2.80
2018-09-08T03:00:48.269Z,2.20
2018-09-08T03:01:48.191Z,2.50
2018-09-08T03:02:48.199Z,2.60
2018-09-08T03:03:48.212Z,2.70
2018-09-08T03:04:48.153Z,3.20
2018-09-08T03:05:48.142Z,2.70
2018-09-08T03:06:48.133Z,2.40
2018-09-08T03:07:48.121Z,2.60
2018-09-08T03:08:48.124Z,3.00
2018-09-08T03:09:48.097Z,3.20
2018-09-08T03:10:48.089Z,2.80
2018-09-08T03:11:48.132Z,2.80
2018-09-08T03:12:48.065Z,2.80
2018-09-08T03:13:48.054Z,2.80
2018-09-08T03:14:48.045Z,2.70
2018-09-08T03:15:48.030Z,2.70
2018-09-08T03:16:48.027Z,2.90
2018-09-08T03:17:48.019Z,3.30
2018-09-08T03:18:48.019Z,2.60
2018-09-08T03:19:47.982Z,2.90
2018-09-08T03:20:47.972Z,2.70
2018-09-08T03:21:47.969Z,3.30
2018-09-08T03:22:47.952Z,2.80
2018-09-08T03:23:47.974Z,3.10
2018-09-08T03:24:47.943Z,2.90
2018-09-08T03:25:47.917Z,3.00
2018-09-08T03:26:47.910Z,3.00
2018-09-08T03:27:47.901Z,3.00
2018-09-08T03:28:47.909Z,2.80
2018-09-08T03:29:47.920Z,2.90
2018-09-08T03:30:47.915Z,2.60
2018-09-08T03:31:47.847Z,3.10
2018-09-08T03:32:47.840Z,3.00
2018-09-08T03:33:47.823Z,3.20
2018-09-08T03:34:47.821Z,2.60
2018-09-08T03:35:47.846Z,2.90
2018-09-08T03:36:47.807Z,3.00
2018-09-08T03:37:47.779Z,3.50
2018-09-08T03:38:47.785Z,3.30
2018-09-08T03:39:47.763Z,3.00
2018-09-08T03:40:47.822Z,3.10
2018-09-08T03:41:47.738Z,2.90
2018-09-08T03:42:47.737Z,3.30
2018-09-08T03:43:47.716Z,3.40
2018-09-08T03:44:47.709Z,3.60
2018-09-08T03:45:47.685Z,3.60
2018-09-08T03:46:47.677Z,3.60
2018-09-08T03:47:47.723Z,3.60
2018-09-08T03:48:47.702Z,3.80
2018-09-08T03:49:47.647Z,3.40
2018-09-08T03:50:47.642Z,3.40
2018-09-08T03:51:47.626Z,3.60
2018-09-08T03:52:47.635Z,3.30
2018-09-08T03:53:47.630Z,3.40
2018-09-08T03:54:47.624Z,3.20
2018-09-08T03:55:47.578Z,3.30
2018-09-08T03:56:47.569Z,3.20
2018-09-08T03:57:47.551Z,3.50
2018-09-08T03:58:47.548Z,3.40
2018-09-08T03:59:47.555Z,3.80
2018-09-08T04:00:47.521Z,4.00
2018-09-08T04:01:47.511Z,3.50
2018-09-08T04:02:47.498Z,3.70
2018-09-08T04:03:47.529Z,3.60
2018-09-08T04:04:47.476Z,3.70
2018-09-08T04:05:47.480Z,3.40
2018-09-08T04:06:47.471Z,3.60
2018-09-08T04:07:47.437Z,3.50
2018-09-08T04:08:47.431Z,3.60
2018-09-08T04:09:47.420Z,3.80
2018-09-08T04:10:47.432Z,3.40
2018-09-08T04:11:47.418Z,3.60
2018-09-08T04:12:47.386Z,3.70
2018-09-08T04:13:47.374Z,4.10
2018-09-08T04:14:47.433Z,4.10
2018-09-08T04:15:47.356Z,4.10
2018-09-08T04:16:47.351Z,4.40
2018-09-08T04:17:47.410Z,4.00
2018-09-08T04:18:47.318Z,4.10
2018-09-08T04:19:47.306Z,4.10
2018-09-08T04:20:47.295Z,4.10
2018-09-08T04:21:47.302Z,4.30
2018-09-08T04:22:47.276Z,4.30
2018-09-08T04:23:47.285Z,4.30
2018-09-08T04:24:47.249Z,4.20
2018-09-08T04:25:47.237Z,4.20
2018-09-08T04:26:47.228Z,4.00
2018-09-08T04:27:47.219Z,4.40
2018-09-08T04:28:47.204Z,3.80
2018-09-08T04:29:47.216Z,4.60
2018-09-08T04:30:47.180Z,4.30
2018-09-08T04:31:47.169Z,4.70
2018-09-08T04:32:47.162Z,4.60
2018-09-08T04:33:47.198Z,4.30
2018-09-08T04:34:47.150Z,4.80
2018-09-08T04:35:47.164Z,4.40
2018-09-08T04:36:47.115Z,4.70
2018-09-08T04:37:47.121Z,4.90
2018-09-08T04:38:47.090Z,4.00
2018-09-08T04:39:47.077Z,5.00
2018-09-08T04:40:47.088Z,5.10
2018-09-08T04:41:47.075Z,4.70
2018-09-08T04:42:47.058Z,4.70
2018-09-08T04:43:47.033Z,4.50
2018-09-08T04:44:47.026Z,4.70
2018-09-08T04:45:47.016Z,4.30
2018-09-08T04:46:47.000Z,5.30
2018-09-08T04:47:47.031Z,4.80
2018-09-08T04:48:46.985Z,5.10
2018-09-08T04:49:46.965Z,4.50
2018-09-08T04:50:46.955Z,4.20
2018-09-08T04:51:46.954Z,5.00
2018-09-08T04:52:46.954Z,4.90
2018-09-08T04:53:46.948Z,5.00
2018-09-08T04:54:46.907Z,4.90
2018-09-08T04:55:46.898Z,4.30
2018-09-08T04:56:46.893Z,5.30
2018-09-08T04:57:46.907Z,4.40
2018-09-08T04:58:46.874Z,4.60
2018-09-08T04:59:46.885Z,4.80
2018-09-08T05:00:46.856Z,5.00
2018-09-08T05:01:46.833Z,5.40
2018-09-08T05:02:46.847Z,5.10
2018-09-08T05:03:46.813Z,5.10
2018-09-08T05:04:46.829Z,5.10
2018-09-08T05:05:46.836Z,5.40
2018-09-08T05:06:46.776Z,4.90
2018-09-08T05:07:46.768Z,5.00
2018-09-08T05:08:46.818Z,5.40
2018-09-08T05:09:46.746Z,5.00
2018-09-08T05:10:46.789Z,5.50
2018-09-08T05:11:46.732Z,4.80
2018-09-08T05:12:46.732Z,5.10
2018-09-08T05:13:46.695Z,5.10
2018-09-08T05:14:46.685Z,5.30
2018-09-08T05:15:46.713Z,5.30
2018-09-08T05:16:46.664Z,5.50
2018-09-08T05:17:46.654Z,5.00
2018-09-08T05:18:46.659Z,5.10
2018-09-08T05:19:46.642Z,5.00
2018-09-08T05:20:46.624Z,4.90
2018-09-08T05:21:46.605Z,5.30
2018-09-08T05:22:46.593Z,4.90
2018-09-08T05:23:46.592Z,5.10
2018-09-08T05:24:46.594Z,5.20
2018-09-08T05:25:46.567Z,4.80
2018-09-08T05:26:46.551Z,5.20
2018-09-08T05:27:46.533Z,4.70
2018-09-08T05:28:46.560Z,5.70
2018-09-08T05:29:46.511Z,4.80
2018-09-08T05:30:46.513Z,5.00
2018-09-08T05:31:46.492Z,5.00
2018-09-08T05:32:46.510Z,5.30
2018-09-08T05:33:46.466Z,4.80
2018-09-08T05:34:46.479Z,4.90
2018-09-08T05:35:46.446Z,5.00
2018-09-08T05:36:46.435Z,5.20
2018-09-08T05:37:46.430Z,4.80
2018-09-08T05:38:46.432Z,5.00
2018-09-08T05:39:46.441Z,4.60
2018-09-08T05:40:46.388Z,5.20
2018-09-08T05:41:46.380Z,4.90
2018-09-08T05:42:46.462Z,5.10
2018-09-08T05:43:46.359Z,5.20
2018-09-08T05:44:46.344Z,4.60
2018-09-08T05:45:46.346Z,5.70
2018-09-08T05:46:46.345Z,5.10
2018-09-08T05:47:46.310Z,4.40
2018-09-08T05:48:46.352Z,4.90
2018-09-08T05:49:46.289Z,5.00
2018-09-08T05:50:46.279Z,4.90
2018-09-08T05:51:46.270Z,4.90
2018-09-08T05:52:46.274Z,5.30
2018-09-08T05:53:46.248Z,5.20
2018-09-08T05:54:46.271Z,4.90
2018-09-08T05:55:46.222Z,4.80
2018-09-08T05:56:46.212Z,4.80
2018-09-08T05:57:46.223Z,5.80
2018-09-08T05:58:46.212Z,5.20
2018-09-08T05:59:46.199Z,4.90
2018-09-08T06:00:46.162Z,4.70
2018-09-08T06:01:46.150Z,4.40
2018-09-08T06:02:46.142Z,5.10
2018-09-08T06:03:46.129Z,5.10
2018-09-08T06:04:46.118Z,5.00
2018-09-08T06:05:46.137Z,4.20
2018-09-08T06:06:46.115Z,4.50
2018-09-08T06:07:46.090Z,4.80
2018-09-08T06:08:46.075Z,4.70
2018-09-08T06:09:46.065Z,4.80
2018-09-08T06:10:46.048Z,4.30
2018-09-08T06:11:46.039Z,5.00
2018-09-08T06:12:46.078Z,4.10
2018-09-08T06:13:46.027Z,5.10
2018-09-08T06:14:46.028Z,4.70
2018-09-08T06:15:46.032Z,4.50
2018-09-08T06:16:45.985Z,4.90
2018-09-08T06:17:45.970Z,4.60
2018-09-08T06:18:45.981Z,5.10
2018-09-08T06:19:46.043Z,5.00
2018-09-08T06:20:45.938Z,4.40
2018-09-08T06:21:45.941Z,5.00
2018-09-08T06:22:45.919Z,4.20
2018-09-08T06:23:45.941Z,5.10
2018-09-08T06:24:45.917Z,4.60
2018-09-08T06:25:45.878Z,4.70
2018-09-08T06:26:45.879Z,4.20
2018-09-08T06:27:45.854Z,4.30
2018-09-08T06:28:45.899Z,4.70
2018-09-08T06:29:45.839Z,4.90
2018-09-08T06:30:45.875Z,4.60
2018-09-08T06:31:45.882Z,4.70
2018-09-08T06:32:45.847Z,4.50
2018-09-08T06:33:45.815Z,4.10
2018-09-08T06:34:45.778Z,4.60
2018-09-08T06:35:45.777Z,4.40
2018-09-08T06:36:45.780Z,5.00
2018-09-08T06:37:45.770Z,4.60
2018-09-08T06:38:45.738Z,4.40
2018-09-08T06:39:45.722Z,4.70
2018-09-08T06:40:45.711Z,4.30
2018-09-08T06:41:45.716Z,4.40
2018-09-08T06:42:45.710Z,4.50
2018-09-08T06:43:45.679Z,4.80
2018-09-08T06:44:45.802Z,4.70
2018-09-08T06:45:45.658Z,4.30
2018-09-08T06:46:45.683Z,5.00
2018-09-08T06:47:45.639Z,3.90
2018-09-08T06:48:45.690Z,4.50
2018-09-08T06:49:45.606Z,4.30
2018-09-08T06:50:45.599Z,4.60
2018-09-08T06:51:45.625Z,5.00
2018-09-08T06:52:45.575Z,4.20
2018-09-08T06:53:45.573Z,4.40
2018-09-08T06:54:45.575Z,4.70
2018-09-08T06:55:45.546Z,4.00
2018-09-08T06:56:45.527Z,4.30
2018-09-08T06:57:45.560Z,4.00
2018-09-08T06:58:45.507Z,4.30
2018-09-08T06:59:45.518Z,4.40
2018-09-08T07:00:45.499Z,4.30
2018-09-08T07:01:45.486Z,4.50
2018-09-08T07:02:45.463Z,4.70
2018-09-08T07:03:45.464Z,4.20
2018-09-08T07:04:45.473Z,4.20
2018-09-08T07:05:45.429Z,4.20
2018-09-08T07:06:45.449Z,4.20
2018-09-08T07:07:45.406Z,4.20
2018-09-08T07:08:45.475Z,4.10
2018-09-08T07:09:45.386Z,4.30
2018-09-08T07:10:45.374Z,4.20
2018-09-08T07:11:45.366Z,3.60
2018-09-08T07:12:45.381Z,4.20
2018-09-08T07:13:45.340Z,4.00
2018-09-08T07:14:45.336Z,4.10
2018-09-08T07:15:45.317Z,4.20
2018-09-08T07:16:45.307Z,4.40
2018-09-08T07:17:45.295Z,3.90
2018-09-08T07:18:45.371Z,3.90
2018-09-08T07:19:45.272Z,4.30
2018-09-08T07:20:45.257Z,4.20
2018-09-08T07:21:45.279Z,4.30
2018-09-08T07:22:45.243Z,3.80
2018-09-08T07:23:45.229Z,4.30
2018-09-08T07:24:45.278Z,3.80
2018-09-08T07:25:45.230Z,3.80
2018-09-08T07:26:45.222Z,3.70
2018-09-08T07:27:45.184Z,4.00
2018-09-08T07:28:45.169Z,4.40
2018-09-08T07:29:45.162Z,4.20
2018-09-08T07:30:45.164Z,4.20
2018-09-08T07:31:45.137Z,4.40
2018-09-08T07:32:45.127Z,3.80
2018-09-08T07:33:45.197Z,3.90
2018-09-08T07:34:45.137Z,4.30
2018-09-08T07:35:45.115Z,3.70
2018-09-08T07:36:45.085Z,3.70
2018-09-08T07:37:45.088Z,3.90
2018-09-08T07:38:45.058Z,3.90
2018-09-08T07:39:45.049Z,3.50
2018-09-08T07:40:45.045Z,3.60
2018-09-08T07:41:45.050Z,4.20
2018-09-08T07:42:45.019Z,3.90
2018-09-08T07:43:45.003Z,4.00
2018-09-08T07:44:44.988Z,4.10
2018-09-08T07:45:44.981Z,3.80
2018-09-08T07:46:44.973Z,3.70
2018-09-08T07:47:45.028Z,4.00
2018-09-08T07:48:44.950Z,3.80
2018-09-08T07:49:44.967Z,3.70
2018-09-08T07:50:44.925Z,3.30
2018-09-08T07:51:44.926Z,3.70
2018-09-08T07:52:44.901Z,3.50
2018-09-08T07:53:44.969Z,3.80
2018-09-08T07:54:44.879Z,4.00
2018-09-08T07:55:44.890Z,3.80
2018-09-08T07:56:44.861Z,4.00
2018-09-08T07:57:44.866Z,4.00
2018-09-08T07:58:44.840Z,3.70
2018-09-08T07:59:44.838Z,3.70
2018-09-08T08:00:44.820Z,3.80
2018-09-08T08:01:44.806Z,3.50
2018-09-08T08:02:44.789Z,3.60
2018-09-08T08:03:44.794Z,4.00
2018-09-08T08:04:44.781Z,4.00
2018-09-08T08:05:44.775Z,4.00
2018-09-08T08:06:44.824Z,3.40
2018-09-08T08:07:44.753Z,3.90
2018-09-08T08:08:44.755Z,3.60
2018-09-08T08:09:44.709Z,3.40
2018-09-08T08:10:44.709Z,3.50
2018-09-08T08:11:44.724Z,3.30
2018-09-08T08:12:44.709Z,3.50
2018-09-08T08:13:44.684Z,4.00
2018-09-08T08:14:44.669Z,4.00
2018-09-08T08:15:44.656Z,3.50
2018-09-08T08:16:44.644Z,3.70
2018-09-08T08:17:44.638Z,3.90
2018-09-08T08:18:44.612Z,3.70
2018-09-08T08:19:44.601Z,3.60
2018-09-08T08:20:44.590Z,3.50
2018-09-08T08:21:44.589Z,3.60
2018-09-08T08:22:44.570Z,3.60
2018-09-08T08:23:44.568Z,3.80
2018-09-08T08:24:44.542Z,3.70
2018-09-08T08:25:44.565Z,3.70
2018-09-08T08:26:44.528Z,3.70
2018-09-08T08:27:44.536Z,3.30
2018-09-08T08:28:44.495Z,3.60
2018-09-08T08:29:44.485Z,3.60
2018-09-08T08:30:44.498Z,3.20
2018-09-08T08:31:44.485Z,3.50
2018-09-08T08:32:44.478Z,3.80
2018-09-08T08:33:44.440Z,3.00
2018-09-08T08:34:44.462Z,3.70
2018-09-08T08:35:44.429Z,3.40
2018-09-08T08:36:44.424Z,3.50
2018-09-08T08:37:44.421Z,3.80
2018-09-08T08:38:44.390Z,3.70
2018-09-08T08:39:44.390Z,3.40
2018-09-08T08:40:44.387Z,3.60
2018-09-08T08:41:44.355Z,3.40
2018-09-08T08:42:44.349Z,3.80
2018-09-08T08:43:44.367Z,3.70
2018-09-08T08:44:44.318Z,3.20
2018-09-08T08:45:44.307Z,3.60
2018-09-08T08:46:44.295Z,3.20
2018-09-08T08:47:44.291Z,3.90
2018-09-08T08:48:44.290Z,3.40
2018-09-08T08:49:44.300Z,3.70
2018-09-08T08:50:44.254Z,3.40
2018-09-08T08:51:44.237Z,3.40
2018-09-08T08:52:44.226Z,3.80
2018-09-08T08:53:44.216Z,3.60
2018-09-08T08:54:44.223Z,3.70
2018-09-08T08:55:44.254Z,3.60
2018-09-08T08:56:44.190Z,3.80
2018-09-08T08:57:44.168Z,3.70
2018-09-08T08:58:44.193Z,3.30
2018-09-08T08:59:44.149Z,3.50
2018-09-08T09:00:44.154Z,3.40
2018-09-08T09:01:44.155Z,3.10
2018-09-08T09:02:44.113Z,3.10
2018-09-08T09:03:44.106Z,3.30
2018-09-08T09:04:44.091Z,3.00
2018-09-08T09:05:44.078Z,3.50
2018-09-08T09:06:44.107Z,2.90
2018-09-08T09:07:44.094Z,3.20
2018-09-08T09:08:44.453Z,3.50
2018-09-08T09:09:44.047Z,3.40
2018-09-08T09:10:44.068Z,3.80
2018-09-08T09:11:44.026Z,3.00
2018-09-08T09:12:44.053Z,3.70
2018-09-08T09:13:44.000Z,4.00
2018-09-08T09:14:43.975Z,3.60
2018-09-08T09:15:43.963Z,4.10
2018-09-08T09:16:43.957Z,3.90
2018-09-08T09:17:43.949Z,3.60
2018-09-08T09:18:44.389Z,4.00
2018-09-08T09:19:43.937Z,3.40
2018-09-08T09:20:43.910Z,3.40
2018-09-08T09:21:43.895Z,4.20
2018-09-08T09:22:43.887Z,4.20
2018-09-08T09:23:43.895Z,3.60
2018-09-08T09:24:44.307Z,3.40
2018-09-08T09:25:43.853Z,3.80
2018-09-08T09:26:43.844Z,4.40
2018-09-08T09:27:43.833Z,3.60
2018-09-08T09:28:43.860Z,4.10
2018-09-08T09:29:43.806Z,4.60
2018-09-08T09:30:43.820Z,3.70
2018-09-08T09:31:43.791Z,4.40
2018-09-08T09:32:43.788Z,4.00
2018-09-08T09:33:43.763Z,3.80
2018-09-08T09:34:43.772Z,3.60
2018-09-08T09:35:43.738Z,4.20
2018-09-08T09:36:43.772Z,4.10
2018-09-08T09:37:43.782Z,4.10
2018-09-08T09:38:43.706Z,4.00
2018-09-08T09:39:43.701Z,4.00
2018-09-08T09:40:43.689Z,4.00
2018-09-08T09:41:43.679Z,3.50
2018-09-08T09:42:43.677Z,3.90
2018-09-08T09:43:43.678Z,3.80
2018-09-08T09:44:43.642Z,3.70
2018-09-08T09:45:43.645Z,4.60
2018-09-08T09:46:43.629Z,4.10
2018-09-08T09:47:43.666Z,4.20
2018-09-08T09:48:43.594Z,4.00
2018-09-08T09:49:43.580Z,4.50
2018-09-08T09:50:43.576Z,4.30
2018-09-08T09:51:43.577Z,4.60
2018-09-08T09:52:43.564Z,4.20
2018-09-08T09:53:43.554Z,4.10
2018-09-08T09:54:43.531Z,4.30
2018-09-08T09:55:43.514Z,4.30
2018-09-08T09:56:43.504Z,4.00
2018-09-08T09:57:43.499Z,4.50
2018-09-08T09:58:43.488Z,3.70
2018-09-08T09:59:43.496Z,3.60
2018-09-08T10:00:43.489Z,3.50
2018-09-08T10:01:43.451Z,3.80
2018-09-08T10:02:43.441Z,3.70
2018-09-08T10:03:43.459Z,3.60
2018-09-08T10:04:43.430Z,3.80
2018-09-08T10:05:43.417Z,3.70
2018-09-08T10:06:43.397Z,3.70
2018-09-08T10:07:43.413Z,3.80
2018-09-08T10:08:43.371Z,3.40
2018-09-08T10:09:43.386Z,3.90
2018-09-08T10:10:43.345Z,3.10
2018-09-08T10:11:43.366Z,3.50
2018-09-08T10:12:43.343Z,3.60
2018-09-08T10:13:43.374Z,3.60
2018-09-08T10:14:43.324Z,3.70
2018-09-08T10:15:43.288Z,3.10
2018-09-08T10:16:43.282Z,3.10
2018-09-08T10:17:43.308Z,3.40
2018-09-08T10:18:43.288Z,2.80
2018-09-08T10:19:43.274Z,3.20
2018-09-08T10:20:43.252Z,3.20
2018-09-08T10:21:43.230Z,3.30
2018-09-08T10:22:43.216Z,3.60
2018-09-08T10:24:04.342Z,3.90
2018-09-08T10:24:43.207Z,3.40
2018-09-08T10:25:43.190Z,3.60
2018-09-08T10:26:43.164Z,3.80
2018-09-08T10:27:43.159Z,3.50
2018-09-08T10:28:43.144Z,3.40
2018-09-08T10:29:43.185Z,3.70
2018-09-08T10:30:43.127Z,3.00
2018-09-08T10:31:43.125Z,3.00
2018-09-08T10:32:43.122Z,3.20
2018-09-08T10:33:43.096Z,3.20
2018-09-08T10:34:43.145Z,3.50
2018-09-08T10:35:43.090Z,3.60
2018-09-08T10:36:43.070Z,3.60
2018-09-08T10:37:43.060Z,3.20
2018-09-08T10:38:43.039Z,3.20
2018-09-08T10:39:43.025Z,3.00
2018-09-08T10:40:43.020Z,3.00
2018-09-08T10:41:43.015Z,2.90
2018-09-08T10:42:42.997Z,3.80
2018-09-08T10:43:42.975Z,3.40
2018-09-08T10:44:42.963Z,3.20
2018-09-08T10:45:42.953Z,3.20
2018-09-08T10:46:42.963Z,3.00
2018-09-08T10:47:42.931Z,2.80
2018-09-08T10:48:42.961Z,3.40
2018-09-08T10:49:42.908Z,3.50
2018-09-08T10:50:42.904Z,2.90
2018-09-08T10:51:42.932Z,2.80
2018-09-08T10:52:42.913Z,2.50
2018-09-08T10:53:42.861Z,2.20
2018-09-08T10:54:42.896Z,2.70
2018-09-08T10:55:42.852Z,2.00
2018-09-08T10:56:42.830Z,2.20
2018-09-08T10:57:42.818Z,2.60
2018-09-08T10:58:42.824Z,2.70
2018-09-08T10:59:42.792Z,2.00
2018-09-08T11:00:42.794Z,2.50
2018-09-08T11:01:42.913Z,2.10
2018-09-08T11:02:43.084Z,2.60
2018-09-08T11:03:42.753Z,2.20
2018-09-08T11:04:42.785Z,2.30
2018-09-08T11:05:42.729Z,2.50
2018-09-08T11:06:42.723Z,2.20
2018-09-08T11:07:42.745Z,2.50
2018-09-08T11:08:42.693Z,2.10
2018-09-08T11:09:42.681Z,2.40
2018-09-08T11:10:42.685Z,1.90
2018-09-08T11:11:42.660Z,2.40
2018-09-08T11:12:42.650Z,2.50
2018-09-08T11:13:42.671Z,2.00
2018-09-08T11:14:42.627Z,2.20
2018-09-08T11:15:42.655Z,2.30
2018-09-08T11:16:42.620Z,2.20
2018-09-08T11:17:42.593Z,1.80
2018-09-08T11:18:42.631Z,2.60
2018-09-08T11:19:42.590Z,2.30
2018-09-08T11:20:42.571Z,2.50
2018-09-08T11:21:42.551Z,2.20
2018-09-08T11:22:42.556Z,2.80
2018-09-08T11:23:42.534Z,1.80
2018-09-08T11:24:42.516Z,2.20
2018-09-08T11:25:42.510Z,1.90
2018-09-08T11:26:42.732Z,2.20
2018-09-08T11:27:42.480Z,2.30
2018-09-08T11:28:42.482Z,2.00
2018-09-08T11:29:42.458Z,2.10
2018-09-08T11:30:42.587Z,2.10
2018-09-08T11:31:42.437Z,2.10
2018-09-08T11:32:42.475Z,1.90
2018-09-08T11:33:42.429Z,2.20
2018-09-08T11:34:42.416Z,2.20
2018-09-08T11:35:42.419Z,2.20
2018-09-08T11:36:42.379Z,1.80
2018-09-08T11:37:42.373Z,2.60
2018-09-08T11:38:42.356Z,2.10
2018-09-08T11:39:42.357Z,2.00
2018-09-08T11:40:42.386Z,2.30
2018-09-08T11:41:42.327Z,1.80
2018-09-08T11:42:42.311Z,2.10
2018-09-08T11:43:42.319Z,2.00
2018-09-08T11:44:42.349Z,2.20
2018-09-08T11:45:42.294Z,1.90
2018-09-08T11:46:42.288Z,1.90
2018-09-08T11:47:42.262Z,1.80
2018-09-08T11:48:42.292Z,1.70
2018-09-08T11:49:42.337Z,2.20
2018-09-08T11:50:42.280Z,2.10
2018-09-08T11:51:42.239Z,1.80
2018-09-08T11:52:42.221Z,2.20
2018-09-08T11:53:42.196Z,2.10
2018-09-08T11:54:42.178Z,2.60
2018-09-08T11:55:42.173Z,2.40
2018-09-08T11:56:42.311Z,2.40
2018-09-08T11:57:42.146Z,2.10
2018-09-08T11:58:42.152Z,1.90
2018-09-08T11:59:42.169Z,2.10
2018-09-08T12:00:42.150Z,2.20
2018-09-08T12:01:42.109Z,1.90
2018-09-08T12:02:42.089Z,1.90
2018-09-08T12:03:42.256Z,1.90
2018-09-08T12:04:42.108Z,1.80
2018-09-08T12:05:42.052Z,1.40
2018-09-08T12:06:42.045Z,1.70
2018-09-08T12:07:42.032Z,1.70
2018-09-08T12:08:42.052Z,1.70
2018-09-08T12:09:42.011Z,1.90
2018-09-08T12:10:42.029Z,1.90
2018-09-08T12:11:41.997Z,1.60
2018-09-08T12:12:41.975Z,1.90
2018-09-08T12:13:41.964Z,2.00
2018-09-08T12:14:41.980Z,1.70
2018-09-08T12:15:41.941Z,2.20
2018-09-08T12:16:41.989Z,1.90
2018-09-08T12:17:41.921Z,2.00
2018-09-08T12:18:41.907Z,1.90
2018-09-08T12:19:41.899Z,1.90
2018-09-08T12:20:41.924Z,1.50
2018-09-08T12:21:41.873Z,1.70
2018-09-08T12:22:41.888Z,2.20
2018-09-08T12:23:41.856Z,2.40
2018-09-08T12:24:41.843Z,2.10
2018-09-08T12:25:41.892Z,2.10
2018-09-08T12:26:41.822Z,2.20
2018-09-08T12:27:41.844Z,2.20
2018-09-08T12:28:41.813Z,1.90
2018-09-08T12:29:41.796Z,2.30
2018-09-08T12:30:41.956Z,2.70
2018-09-08T12:31:41.767Z,2.80
2018-09-08T12:32:41.755Z,2.20
2018-09-08T12:33:41.758Z,2.10
2018-09-08T12:34:41.741Z,2.10
2018-09-08T12:35:41.740Z,2.10
2018-09-08T12:36:41.709Z,2.50
2018-09-08T12:37:41.694Z,2.70
2018-09-08T12:38:41.734Z,2.20
2018-09-08T12:39:41.684Z,2.00
2018-09-08T12:40:41.663Z,2.00
2018-09-08T12:41:41.671Z,1.90
2018-09-08T12:42:41.641Z,1.70
2018-09-08T12:43:41.633Z,1.60
2018-09-08T12:44:41.616Z,1.70
2018-09-08T12:45:41.622Z,1.80
2018-09-08T12:46:41.611Z,1.70
2018-09-08T12:47:41.600Z,2.10
2018-09-08T12:48:41.591Z,1.80
2018-09-08T12:49:41.563Z,1.90
2018-09-08T12:50:41.563Z,2.00
2018-09-08T12:51:41.562Z,2.00
2018-09-08T12:52:41.532Z,2.20
2018-09-08T12:53:41.537Z,1.90
2018-09-08T12:54:41.507Z,2.10
2018-09-08T12:55:41.497Z,1.80
2018-09-08T12:56:41.482Z,2.00
2018-09-08T12:57:41.517Z,1.90
2018-09-08T12:58:41.461Z,2.30
2018-09-08T12:59:41.472Z,1.90
2018-09-08T13:00:41.438Z,1.60
2018-09-08T13:01:41.431Z,2.30
2018-09-08T13:02:41.418Z,2.20
2018-09-08T13:03:41.437Z,2.00
2018-09-08T13:04:41.392Z,1.90
2018-09-08T13:05:41.401Z,2.00
2018-09-08T13:06:41.386Z,2.10
2018-09-08T13:07:41.436Z,2.50
2018-09-08T13:08:41.354Z,2.50
2018-09-08T13:09:41.338Z,2.40
2018-09-08T13:10:41.329Z,2.50
2018-09-08T13:11:41.353Z,2.20
2018-09-08T13:12:41.311Z,2.40
2018-09-08T13:13:41.295Z,2.30
2018-09-08T13:14:41.298Z,2.30
2018-09-08T13:15:41.279Z,2.20
2018-09-08T13:16:41.266Z,2.40
2018-09-08T13:17:41.278Z,2.60
2018-09-08T13:18:41.238Z,2.20